createdAt,value
2023-05-12T00:02:00.639Z,51330.94
2023-05-12T00:04:27.750Z,51328.94
2023-05-12T00:06:54.845Z,51313.03
2023-05-12T00:09:21.892Z,51319.00
2023-05-12T00:11:49.522Z,51287.19
2023-05-12T00:14:17.093Z,51326.94
2023-05-12T00:16:44.267Z,51309.06
2023-05-12T00:19:11.340Z,51324.97
2023-05-12T00:21:38.437Z,51350.81
2023-05-12T00:24:06.174Z,51291.16
2023-05-12T00:26:33.250Z,51326.94
2023-05-12T00:29:00.567Z,51309.06
2023-05-12T00:31:27.670Z,51319.00
2023-05-12T00:33:54.777Z,51317.00
2023-05-12T00:36:21.962Z,51299.13
2023-05-12T00:38:49.379Z,51336.91
2023-05-12T00:41:16.822Z,51321.00
2023-05-12T00:43:43.886Z,51315.03
2023-05-12T00:46:11.534Z,51328.94
2023-05-12T00:48:38.758Z,51315.03
2023-05-12T00:51:06.377Z,51342.84
2023-05-12T00:53:45.394Z,51303.09
2023-05-12T00:56:18.535Z,51313.03
2023-05-12T00:58:46.312Z,51321.00
2023-05-12T01:01:14.673Z,51295.16
2023-05-12T01:03:42.059Z,51307.06
2023-05-12T01:06:13.284Z,51319.00
2023-05-12T01:08:42.643Z,51317.00
2023-05-12T01:11:10.201Z,51328.94
2023-05-12T01:13:39.547Z,51311.06
2023-05-12T01:16:10.032Z,51338.88
2023-05-12T01:18:39.246Z,51315.03
2023-05-12T01:21:07.350Z,51303.09
2023-05-12T01:23:44.921Z,51330.94
2023-05-12T01:26:12.867Z,51287.19
2023-05-12T01:28:41.312Z,51317.00
2023-05-12T01:31:09.611Z,51322.97
2023-05-12T01:33:38.840Z,51324.97
2023-05-12T01:36:06.792Z,51322.97
2023-05-12T01:38:34.592Z,51324.97
2023-05-12T01:41:02.221Z,51303.09
2023-05-12T01:43:29.266Z,51313.03
2023-05-12T01:45:56.303Z,51313.03
2023-05-12T01:48:23.397Z,51328.94
2023-05-12T01:50:50.986Z,51326.94
2023-05-12T01:53:21.536Z,51293.16
2023-05-12T01:55:48.646Z,51313.03
2023-05-12T01:58:28.625Z,51321.00
2023-05-12T02:00:58.352Z,51291.16
2023-05-12T02:03:25.557Z,51319.00
2023-05-12T02:05:52.660Z,51287.19
2023-05-12T02:08:20.162Z,51330.94
2023-05-12T02:10:47.444Z,51348.81
2023-05-12T02:13:15.369Z,51313.03
2023-05-12T02:15:42.508Z,51334.91
2023-05-12T02:18:09.734Z,51321.00
2023-05-12T02:20:39.441Z,51319.00
2023-05-12T02:23:06.571Z,51356.78
2023-05-12T02:25:34.056Z,51324.97
2023-05-12T02:28:01.082Z,51317.00
2023-05-12T02:30:28.208Z,51299.13
2023-05-12T02:32:55.529Z,51322.97
2023-05-12T02:35:22.842Z,51279.25
2023-05-12T02:37:50.039Z,51315.03
2023-05-12T02:40:17.324Z,51311.06
2023-05-12T02:42:45.678Z,51293.16
2023-05-12T02:45:13.224Z,51311.06
2023-05-12T02:47:41.166Z,51281.22
2023-05-12T02:50:09.604Z,51317.00
2023-05-12T02:52:36.673Z,51295.16
2023-05-12T02:55:04.116Z,51315.03
2023-05-12T02:57:34.066Z,51307.06
2023-05-12T03:00:06.850Z,51338.88
2023-05-12T03:02:38.902Z,51311.06
2023-05-12T03:05:09.209Z,51307.06
2023-05-12T03:07:37.095Z,51301.09
2023-05-12T03:10:04.821Z,51326.94
2023-05-12T03:12:32.142Z,51287.19
2023-05-12T03:14:59.710Z,51321.00
2023-05-12T03:17:27.224Z,51321.00
2023-05-12T03:19:54.329Z,51313.03
2023-05-12T03:22:21.440Z,51321.00
2023-05-12T03:24:48.534Z,51301.09
2023-05-12T03:27:15.698Z,51301.09
2023-05-12T03:29:42.784Z,51281.22
2023-05-12T03:32:10.101Z,51301.09
2023-05-12T03:34:37.237Z,51317.00
2023-05-12T03:37:04.550Z,51279.25
2023-05-12T03:39:31.749Z,51305.09
2023-05-12T03:41:58.934Z,51301.09
2023-05-12T03:44:25.981Z,51289.19
2023-05-12T03:46:53.197Z,51301.09
2023-05-12T03:49:20.877Z,51313.03
2023-05-12T03:51:47.959Z,51301.09
2023-05-12T03:54:15.044Z,51322.97
2023-05-12T03:56:42.621Z,51299.13
2023-05-12T03:59:11.994Z,51313.03
2023-05-12T04:01:39.489Z,51277.25
2023-05-12T04:04:06.651Z,51322.97
2023-05-12T04:06:33.772Z,51299.13
2023-05-12T04:09:01.103Z,51317.00
2023-05-12T04:11:28.209Z,51317.00
2023-05-12T04:13:55.251Z,51293.16
2023-05-12T04:16:22.703Z,51340.88
2023-05-12T04:18:51.796Z,51313.03
2023-05-12T04:21:18.854Z,51297.13
2023-05-12T04:23:46.052Z,51311.06
2023-05-12T04:26:13.196Z,51344.84
2023-05-12T04:28:41.007Z,51305.09
2023-05-12T04:31:08.684Z,51305.09
2023-05-12T04:33:37.023Z,51326.94
2023-05-12T04:36:05.884Z,51319.00
2023-05-12T04:38:32.997Z,51328.94
2023-05-12T04:41:01.178Z,51330.94
2023-05-12T04:46:00.245Z,51328.94
2023-05-12T04:48:31.653Z,51305.09
2023-05-12T04:51:02.103Z,51330.94
2023-05-12T04:53:29.372Z,51321.00
2023-05-12T04:55:56.740Z,51348.81
2023-05-12T04:58:24.712Z,51350.81
2023-05-12T05:00:53.026Z,51342.84
2023-05-12T05:03:20.623Z,51330.94
2023-05-12T05:05:49.072Z,51352.78
2023-05-12T05:08:16.936Z,51321.00
2023-05-12T05:10:44.055Z,51340.88
2023-05-12T05:13:11.209Z,51356.78
2023-05-12T05:15:38.530Z,51362.75
2023-05-12T05:18:06.093Z,51340.88
2023-05-12T05:20:34.453Z,51352.78
2023-05-12T05:23:01.769Z,51350.81
2023-05-12T05:25:28.798Z,51388.59
2023-05-12T05:27:56.500Z,51362.75
2023-05-12T05:30:23.570Z,51350.81
2023-05-12T05:32:50.768Z,51368.69
2023-05-12T05:35:22.146Z,51307.06
2023-05-12T05:37:53.722Z,51348.81
2023-05-12T05:40:21.998Z,51354.78
2023-05-12T05:42:49.233Z,51368.69
2023-05-12T05:45:16.871Z,51366.72
2023-05-12T05:47:44.618Z,51384.59
2023-05-12T05:50:12.640Z,51376.66
2023-05-12T05:52:41.563Z,51392.56
2023-05-12T05:55:08.957Z,51380.63
2023-05-12T05:57:36.300Z,51338.88
2023-05-12T06:00:05.076Z,51392.56
2023-05-12T06:02:41.848Z,51402.50
2023-05-12T06:05:14.256Z,51408.47
2023-05-12T06:07:41.703Z,51398.53
2023-05-12T06:10:09.646Z,51392.56
2023-05-12T06:12:36.688Z,51376.66
2023-05-12T06:15:04.092Z,51400.50
2023-05-12T06:17:32.656Z,51400.50
2023-05-12T06:19:59.923Z,51384.59
2023-05-12T06:22:26.978Z,51428.34
2023-05-12T06:24:54.093Z,51404.50
2023-05-12T06:27:21.159Z,51416.41
2023-05-12T06:29:48.265Z,51408.47
2023-05-12T06:32:15.567Z,51408.47
2023-05-12T06:34:43.337Z,51428.34
2023-05-12T06:37:11.068Z,51418.41
2023-05-12T06:39:38.290Z,51448.22
2023-05-12T06:42:05.760Z,51478.03
2023-05-12T06:44:42.251Z,51408.47
2023-05-12T06:47:09.750Z,51434.31
2023-05-12T06:49:38.652Z,51428.34
2023-05-12T06:52:06.787Z,51418.41
2023-05-12T06:54:34.093Z,51440.28
2023-05-12T06:57:01.227Z,51458.16
2023-05-12T06:59:28.271Z,51444.25
2023-05-12T07:01:55.442Z,51462.16
2023-05-12T07:04:22.814Z,51460.16
2023-05-12T07:06:50.767Z,51422.38
2023-05-12T07:09:18.836Z,51440.28
2023-05-12T07:11:46.175Z,51444.25
2023-05-12T07:14:13.205Z,51448.22
2023-05-12T07:16:40.289Z,51432.31
2023-05-12T07:19:09.045Z,51452.19
2023-05-12T07:21:37.326Z,51448.22
2023-05-12T07:24:06.323Z,51454.19
2023-05-12T07:26:33.737Z,51434.31
2023-05-12T07:29:01.431Z,51458.16
2023-05-12T07:31:28.961Z,51450.22
2023-05-12T07:33:56.248Z,51472.09
2023-05-12T07:36:23.387Z,51454.19
2023-05-12T07:38:50.450Z,51468.09
2023-05-12T07:41:18.155Z,51474.06
2023-05-12T07:43:46.142Z,51458.16
2023-05-12T07:46:13.493Z,51499.91
2023-05-12T07:48:40.742Z,51456.19
2023-05-12T07:51:08.624Z,51482.03
2023-05-12T07:53:36.199Z,51464.13
2023-05-12T07:56:03.518Z,51460.16
2023-05-12T07:58:30.628Z,51458.16
2023-05-12T08:01:00.266Z,51478.03
2023-05-12T08:03:27.780Z,51484.00
2023-05-12T08:05:55.074Z,51499.91
2023-05-12T08:08:22.099Z,51482.03
2023-05-12T08:10:49.129Z,51468.09
2023-05-12T08:13:16.288Z,51489.97
2023-05-12T08:15:43.333Z,51482.03
2023-05-12T08:18:10.743Z,51454.19
2023-05-12T08:20:37.966Z,51470.09
2023-05-12T08:23:05.170Z,51470.09
2023-05-12T08:25:34.885Z,51472.09
2023-05-12T08:28:02.208Z,51458.16
2023-05-12T08:30:29.326Z,51474.06
2023-05-12T08:32:56.845Z,51478.03
2023-05-12T08:35:27.735Z,51482.03
2023-05-12T08:37:54.969Z,51480.03
2023-05-12T08:40:24.501Z,51495.94
2023-05-12T08:43:14.067Z,51523.78
2023-05-12T08:45:41.730Z,51509.84
2023-05-12T08:48:13.758Z,51537.69
2023-05-12T08:50:41.947Z,51484.00
2023-05-12T08:53:12.358Z,51507.88
2023-05-12T08:55:54.388Z,51523.78
2023-05-12T08:58:40.943Z,51470.09
2023-05-12T09:01:12.408Z,51495.94
2023-05-12T09:03:39.919Z,51472.09
2023-05-12T09:06:08.494Z,51452.19
2023-05-12T09:08:36.828Z,51493.94
2023-05-12T09:11:04.358Z,51515.81
2023-05-12T09:14:03.198Z,51523.78
2023-05-12T09:16:34.716Z,51551.63
2023-05-12T09:19:04.611Z,51639.09
2023-05-12T09:21:34.186Z,51573.47
2023-05-12T09:24:06.343Z,51603.31
2023-05-12T09:26:46.631Z,51583.41
2023-05-12T09:29:21.257Z,51583.41
2023-05-12T09:32:00.844Z,51603.31
2023-05-12T09:34:41.328Z,51599.31
2023-05-12T09:37:09.077Z,51601.31
2023-05-12T09:39:37.304Z,51627.16
2023-05-12T09:42:10.922Z,51678.84
2023-05-12T09:44:41.328Z,51643.06
2023-05-12T09:47:10.256Z,51684.81
2023-05-12T09:49:38.371Z,51674.88
2023-05-12T09:52:06.126Z,51645.06
2023-05-12T09:54:34.499Z,51655.00
2023-05-12T09:57:05.168Z,51670.91
2023-05-12T09:59:36.225Z,51662.94
2023-05-12T10:02:06.688Z,51631.13
2023-05-12T10:04:45.550Z,51674.88
2023-05-12T10:07:14.619Z,51664.94
2023-05-12T10:09:44.351Z,51686.81
2023-05-12T10:12:11.922Z,51684.81
2023-05-12T10:14:39.150Z,51716.63
2023-05-12T10:17:09.376Z,51633.13
2023-05-12T10:19:36.600Z,51680.84
2023-05-12T10:22:05.990Z,51686.81
2023-05-12T10:24:33.819Z,51734.53
2023-05-12T10:27:03.255Z,51736.53
2023-05-12T10:29:32.855Z,51706.69
2023-05-12T10:32:03.839Z,51690.78
2023-05-12T10:34:36.869Z,51696.75
2023-05-12T10:37:13.615Z,51694.75
2023-05-12T10:39:52.956Z,51702.72
2023-05-12T10:42:25.717Z,51698.75
2023-05-12T10:44:55.215Z,51720.59
2023-05-12T10:47:29.593Z,51674.88
2023-05-12T10:49:58.832Z,51674.88
2023-05-12T10:52:26.002Z,51686.81
2023-05-12T10:55:01.631Z,51668.91
2023-05-12T10:57:30.850Z,51682.84
2023-05-12T11:00:00.973Z,51744.47
2023-05-12T11:02:35.972Z,51732.53
2023-05-12T11:05:12.899Z,51744.47
2023-05-12T11:07:41.899Z,51754.41
2023-05-12T11:10:11.572Z,51734.53
2023-05-12T11:12:38.819Z,51776.28
2023-05-12T11:15:07.152Z,51738.50
2023-05-12T11:17:38.719Z,51730.56
2023-05-12T11:20:07.296Z,51768.31
2023-05-12T11:22:34.386Z,51754.41
2023-05-12T11:25:11.354Z,51750.44
2023-05-12T11:27:42.538Z,51704.69
2023-05-12T11:30:11.242Z,51746.47
2023-05-12T11:32:38.451Z,51706.69
2023-05-12T11:35:18.422Z,51726.56
2023-05-12T11:37:46.614Z,51732.53
2023-05-12T11:40:22.634Z,51738.50
2023-05-12T11:42:53.058Z,51752.41
2023-05-12T11:45:29.334Z,51738.50
2023-05-12T11:48:13.852Z,51722.59
2023-05-12T11:50:48.873Z,51698.75
2023-05-12T11:53:18.953Z,51678.84
2023-05-12T11:55:51.167Z,51674.88
2023-05-12T11:58:27.298Z,51655.00
2023-05-12T12:00:55.342Z,51792.19
2023-05-12T12:03:23.902Z,51901.56
2023-05-12T12:06:03.513Z,52060.63
2023-05-12T12:08:31.126Z,51969.16
2023-05-12T12:10:58.177Z,51893.59
2023-05-12T12:13:26.401Z,51857.81
2023-05-12T12:15:53.689Z,51826.00
2023-05-12T12:18:21.393Z,51776.28
2023-05-12T12:20:48.773Z,51750.44
2023-05-12T12:23:16.053Z,51718.63
2023-05-12T12:25:43.755Z,51696.75
2023-05-12T12:28:11.137Z,51678.84
2023-05-12T12:30:38.636Z,51666.94
2023-05-12T12:33:05.695Z,51672.91
2023-05-12T12:35:32.804Z,51672.91
2023-05-12T12:38:00.555Z,51664.94
2023-05-12T12:40:27.781Z,51658.97
2023-05-12T12:42:54.829Z,51641.09
2023-05-12T12:45:22.156Z,51641.09
2023-05-12T12:47:52.546Z,51730.56
2023-05-12T12:50:20.031Z,51726.56
2023-05-12T12:52:48.995Z,51692.78
2023-05-12T12:55:16.369Z,51670.91
2023-05-12T12:57:43.607Z,51666.94
2023-05-12T13:00:12.067Z,51672.91
2023-05-12T13:02:39.554Z,51710.66
2023-05-12T13:05:08.347Z,51694.75
2023-05-12T13:07:35.456Z,51692.78
2023-05-12T13:10:04.007Z,51708.69
2023-05-12T13:12:31.465Z,51708.69
2023-05-12T13:15:00.354Z,51704.69
2023-05-12T13:17:28.483Z,51694.75
2023-05-12T13:19:56.280Z,51684.81
2023-05-12T13:22:23.641Z,51666.94
2023-05-12T13:24:50.646Z,51686.81
2023-05-12T13:27:18.162Z,51718.63
2023-05-12T13:29:47.421Z,51740.50
2023-05-12T13:32:16.308Z,51925.41
2023-05-12T13:34:43.527Z,52088.47
2023-05-12T13:37:10.628Z,52390.72
2023-05-12T13:39:37.801Z,52746.72
2023-05-12T13:42:05.571Z,52454.38
2023-05-12T13:44:32.793Z,52183.91
2023-05-12T13:47:00.055Z,51965.19
2023-05-12T13:49:27.134Z,51837.91
2023-05-12T13:51:54.318Z,51800.16
2023-05-12T13:54:22.297Z,51754.41
2023-05-12T13:56:49.477Z,51762.38
2023-05-12T13:59:16.594Z,51718.63
2023-05-12T14:01:46.504Z,51766.34
2023-05-12T14:04:14.378Z,51710.66
2023-05-12T14:06:41.591Z,51756.41
2023-05-12T14:09:08.684Z,51764.34
2023-05-12T14:11:35.778Z,51808.09
2023-05-12T14:14:06.387Z,51792.19
2023-05-12T14:16:33.622Z,51752.41
2023-05-12T14:19:00.912Z,51806.09
2023-05-12T14:21:28.141Z,51772.31
2023-05-12T14:23:55.221Z,51762.38
2023-05-12T14:26:22.604Z,51786.22
2023-05-12T14:28:49.819Z,51824.00
2023-05-12T14:31:17.507Z,51788.22
2023-05-12T14:33:44.681Z,51766.34
2023-05-12T14:36:11.786Z,51730.56
2023-05-12T14:38:38.912Z,51696.75
2023-05-12T14:41:08.483Z,51664.94
2023-05-12T14:43:35.640Z,51623.19
2023-05-12T14:46:03.060Z,51631.13
2023-05-12T14:48:30.496Z,51607.28
2023-05-12T14:50:58.078Z,51583.41
2023-05-12T14:53:25.399Z,51551.63
2023-05-12T14:55:53.018Z,51507.88
2023-05-12T14:58:24.138Z,51499.91
2023-05-12T15:00:52.389Z,51491.97
2023-05-12T15:03:21.158Z,51535.69
2023-05-12T15:08:21.703Z,51565.53
2023-05-12T15:10:49.224Z,51571.50
2023-05-12T15:13:18.277Z,51541.66
2023-05-12T15:15:46.948Z,51575.47
2023-05-12T15:18:14.315Z,51557.56
2023-05-12T15:20:41.714Z,51557.56
2023-05-12T15:23:08.904Z,51561.56
2023-05-12T15:25:40.394Z,51571.50
2023-05-12T15:28:08.169Z,51541.66
2023-05-12T15:30:36.212Z,51571.50
2023-05-12T15:33:08.833Z,51569.50
2023-05-12T15:35:36.089Z,51645.06
2023-05-12T15:38:03.142Z,51617.22
2023-05-12T15:40:31.128Z,51615.22
2023-05-12T15:42:58.463Z,51617.22
2023-05-12T15:45:25.606Z,51621.19
2023-05-12T15:47:53.075Z,51647.03
2023-05-12T15:50:22.999Z,51738.50
2023-05-12T15:52:53.158Z,51726.56
2023-05-12T15:55:20.541Z,51668.91
2023-05-12T15:57:48.153Z,51655.00
2023-05-12T16:00:16.054Z,51611.25
2023-05-12T16:02:43.802Z,51605.28
2023-05-12T16:05:12.095Z,51621.19
2023-05-12T16:07:39.235Z,51603.31
2023-05-12T16:10:07.186Z,51655.00
2023-05-12T16:12:34.349Z,51615.22
2023-05-12T16:15:01.468Z,51591.38
2023-05-12T16:17:28.692Z,51547.63
2023-05-12T16:19:57.064Z,51539.69
2023-05-12T16:22:24.495Z,51523.78
2023-05-12T16:24:51.590Z,51525.75
2023-05-12T16:27:18.672Z,51519.81
2023-05-12T16:29:47.337Z,51505.88
2023-05-12T16:32:14.545Z,51505.88
2023-05-12T16:34:41.677Z,51474.06
2023-05-12T16:37:08.801Z,51495.94
2023-05-12T16:39:36.734Z,51491.97
2023-05-12T16:42:04.180Z,51507.88
2023-05-12T16:44:31.286Z,51470.09
2023-05-12T16:46:58.809Z,51454.19
2023-05-12T16:49:26.045Z,51458.16
2023-05-12T16:51:53.272Z,51444.25
2023-05-12T16:54:20.489Z,51476.06
2023-05-12T16:56:48.430Z,51491.97
2023-05-12T16:59:15.799Z,51450.22
2023-05-12T17:01:42.953Z,51462.16
2023-05-12T17:04:12.444Z,51476.06
2023-05-12T17:06:39.484Z,51458.16
2023-05-12T17:09:06.617Z,51424.38
2023-05-12T17:11:33.780Z,51426.34
2023-05-12T17:14:01.032Z,51418.41
2023-05-12T17:16:28.838Z,51450.22
2023-05-12T17:21:26.705Z,51432.31
2023-05-12T17:23:54.421Z,51458.16
2023-05-12T17:26:21.516Z,51442.25
2023-05-12T17:28:48.683Z,51442.25
2023-05-12T17:31:15.826Z,51450.22
2023-05-12T17:33:42.925Z,51432.31
2023-05-12T17:36:13.141Z,51420.41
2023-05-12T17:38:41.423Z,51446.25
2023-05-12T17:41:08.666Z,51452.19
2023-05-12T17:43:35.953Z,51458.16
2023-05-12T17:46:04.888Z,51474.06
2023-05-12T17:48:33.361Z,51484.00
2023-05-12T17:51:03.142Z,51478.03
2023-05-12T17:53:31.515Z,51466.13
2023-05-12T17:55:59.289Z,51480.03
2023-05-12T17:58:28.665Z,51422.38
2023-05-12T18:00:56.186Z,51442.25
2023-05-12T18:03:24.050Z,51426.34
2023-05-12T18:05:53.303Z,51418.41
2023-05-12T18:08:20.712Z,51394.53
2023-05-12T18:10:47.982Z,51402.50
2023-05-12T18:13:15.579Z,51420.41
2023-05-12T18:15:42.955Z,51404.50
2023-05-12T18:18:10.788Z,51412.44
2023-05-12T18:20:38.237Z,51416.41
2023-05-12T18:23:05.395Z,51412.44
2023-05-12T18:25:32.682Z,51406.47
2023-05-12T18:27:59.782Z,51410.44
2023-05-12T18:30:26.922Z,51406.47
2023-05-12T18:32:54.078Z,51416.41
2023-05-12T18:35:21.900Z,51374.66
2023-05-12T18:37:49.575Z,51404.50
2023-05-12T18:40:16.983Z,51394.53
2023-05-12T18:42:44.120Z,51394.53
2023-05-12T18:45:12.055Z,51338.88
2023-05-12T18:47:39.499Z,51390.56
2023-05-12T18:50:08.062Z,51378.66
2023-05-12T18:52:35.722Z,51390.56
2023-05-12T18:55:03.201Z,51380.63
2023-05-12T18:57:30.315Z,51372.69
2023-05-12T18:59:57.462Z,51390.56
2023-05-12T19:02:24.672Z,51380.63
2023-05-12T19:04:52.533Z,51384.59
2023-05-12T19:07:20.864Z,51368.69
2023-05-12T19:09:48.378Z,51388.59
2023-05-12T19:12:15.476Z,51368.69
2023-05-12T19:14:43.237Z,51328.94
2023-05-12T19:17:10.914Z,51342.84
2023-05-12T19:19:38.435Z,51328.94
2023-05-12T19:22:05.906Z,51336.91
2023-05-12T19:24:34.615Z,51348.81
2023-05-12T19:27:01.808Z,51362.75
2023-05-12T19:29:28.952Z,51356.78
2023-05-12T19:31:56.241Z,51358.75
2023-05-12T19:34:23.981Z,51330.94
2023-05-12T19:36:53.014Z,51362.75
2023-05-12T19:39:20.240Z,51342.84
2023-05-12T19:41:47.592Z,51364.72
2023-05-12T19:44:14.647Z,51350.81
2023-05-12T19:46:41.752Z,51350.81
2023-05-12T19:49:08.827Z,51338.88
2023-05-12T19:51:36.110Z,51317.00
2023-05-12T19:54:06.365Z,51336.91
2023-05-12T19:56:33.810Z,51328.94
2023-05-12T19:59:00.860Z,51311.06
2023-05-12T20:01:28.102Z,51322.97
2023-05-12T20:03:55.975Z,51342.84
2023-05-12T20:06:24.360Z,51313.03
2023-05-12T20:08:51.586Z,51321.00
2023-05-12T20:11:18.706Z,51315.03
2023-05-12T20:13:45.721Z,51340.88
2023-05-12T20:16:12.996Z,51330.94
2023-05-12T20:18:40.359Z,51299.13
2023-05-12T20:21:07.427Z,51301.09
2023-05-12T20:23:34.431Z,51315.03
2023-05-12T20:26:01.517Z,51293.16
2023-05-12T20:28:29.272Z,51313.03
2023-05-12T20:30:56.478Z,51293.16
2023-05-12T20:33:23.591Z,51322.97
2023-05-12T20:35:50.882Z,51334.91
2023-05-12T20:38:18.062Z,51291.16
2023-05-12T20:40:45.251Z,51293.16
2023-05-12T20:43:14.409Z,51303.09
2023-05-12T20:45:41.691Z,51299.13
2023-05-12T20:48:09.292Z,51295.16
2023-05-12T20:50:36.497Z,51295.16
2023-05-12T20:53:04.600Z,51297.13
2023-05-12T20:55:34.944Z,51305.09
2023-05-12T20:58:02.107Z,51287.19
2023-05-12T21:00:29.150Z,51281.22
2023-05-12T21:02:58.138Z,51299.13
2023-05-12T21:05:25.671Z,51267.31
2023-05-12T21:07:52.748Z,51285.19
2023-05-12T21:10:20.539Z,51289.19
2023-05-12T21:12:47.875Z,51283.22
2023-05-12T21:15:14.996Z,51301.09
2023-05-12T21:17:42.513Z,51299.13
2023-05-12T21:20:11.814Z,51291.16
2023-05-12T21:22:40.774Z,51283.22
2023-05-12T21:25:08.494Z,51301.09
2023-05-12T21:27:41.484Z,51281.22
2023-05-12T21:30:10.342Z,51283.22
2023-05-12T21:32:37.556Z,51275.25
2023-05-12T21:35:06.171Z,51259.34
2023-05-12T21:37:33.428Z,51293.16
2023-05-12T21:40:00.576Z,51297.13
2023-05-12T21:42:27.629Z,51281.22
2023-05-12T21:44:54.802Z,51293.16
2023-05-12T21:47:21.925Z,51285.19
2023-05-12T21:49:56.928Z,51299.13
2023-05-12T21:52:24.034Z,51315.03
2023-05-12T21:54:51.138Z,51279.25
2023-05-12T21:57:18.284Z,51271.28
2023-05-12T21:59:45.337Z,51265.31
2023-05-12T22:02:13.064Z,51267.31
2023-05-12T22:04:40.409Z,51267.31
2023-05-12T22:07:07.882Z,51277.25
2023-05-12T22:09:35.237Z,51255.38
2023-05-12T22:12:02.320Z,51239.47
2023-05-12T22:14:29.401Z,51247.44
2023-05-12T22:16:56.807Z,51257.38
2023-05-12T22:19:23.887Z,51265.31
2023-05-12T22:21:51.469Z,51263.34
2023-05-12T22:24:18.513Z,51255.38
2023-05-12T22:26:46.019Z,51249.41
2023-05-12T22:29:13.114Z,51261.34
2023-05-12T22:31:40.296Z,51257.38
2023-05-12T22:34:07.665Z,51271.28
2023-05-12T22:36:34.756Z,51257.38
2023-05-12T22:39:02.106Z,51277.25
2023-05-12T22:41:29.263Z,51273.28
2023-05-12T22:43:57.449Z,51273.28
2023-05-12T22:46:24.528Z,51253.41
2023-05-12T22:48:52.683Z,51285.19
2023-05-12T22:51:19.752Z,51247.44
2023-05-12T22:53:46.848Z,51249.41
2023-05-12T22:56:13.955Z,51263.34
2023-05-12T22:58:40.984Z,51225.56
2023-05-12T23:01:08.268Z,51257.38
2023-05-12T23:03:35.452Z,51253.41
2023-05-12T23:06:02.548Z,51263.34
2023-05-12T23:08:29.574Z,51227.56
2023-05-12T23:10:56.621Z,51259.34
2023-05-12T23:13:23.615Z,51293.16
2023-05-12T23:15:50.678Z,51245.44
2023-05-12T23:18:17.750Z,51253.41
2023-05-12T23:20:44.797Z,51263.34
2023-05-12T23:23:11.858Z,51257.38
2023-05-12T23:25:38.984Z,51257.38
2023-05-12T23:28:06.561Z,51247.44
2023-05-12T23:30:33.657Z,51269.31
2023-05-12T23:33:00.979Z,51237.50
2023-05-12T23:35:28.118Z,51261.34
2023-05-12T23:37:55.172Z,51269.31
2023-05-12T23:40:22.366Z,51269.31
2023-05-12T23:42:49.657Z,51239.47
2023-05-12T23:45:16.842Z,51245.44
2023-05-12T23:47:43.895Z,51237.50
2023-05-12T23:50:11.419Z,51251.41
2023-05-12T23:52:38.492Z,51249.41
2023-05-12T23:55:06.186Z,51251.41
2023-05-12T23:57:33.214Z,51273.28
